createdAt,value
2023-05-05T00:04:29.536Z,100925.02
2023-05-05T00:09:32.437Z,100928.80
2023-05-05T00:14:35.543Z,100936.92
2023-05-05T00:19:38.452Z,100937.79
2023-05-05T00:24:41.349Z,100935.91
2023-05-05T00:29:44.254Z,100934.75
2023-05-05T00:34:47.170Z,100928.77
2023-05-05T00:39:50.069Z,100926.08
2023-05-05T00:44:52.977Z,100926.70
2023-05-05T00:49:56.425Z,100920.48
2023-05-05T00:54:59.671Z,100922.20
2023-05-05T01:00:03.181Z,100913.73
2023-05-05T01:05:08.891Z,100911.70
2023-05-05T01:10:27.033Z,100911.76
2023-05-05T01:15:49.043Z,100914.88
2023-05-05T01:21:10.971Z,100913.50
2023-05-05T01:26:59.422Z,100913.13
2023-05-05T01:32:07.275Z,100913.16
2023-05-05T01:37:37.060Z,100913.86
2023-05-05T01:42:43.641Z,100909.70
2023-05-05T01:47:47.851Z,100908.96
2023-05-05T01:52:52.917Z,100908.28
2023-05-05T01:57:58.831Z,100911.80
2023-05-05T02:03:04.602Z,100908.52
2023-05-05T02:08:09.765Z,100905.30
2023-05-05T02:13:13.338Z,100900.00
2023-05-05T02:18:18.134Z,100902.56
2023-05-05T02:23:21.572Z,100907.06
2023-05-05T02:29:04.221Z,100908.20
2023-05-05T02:34:08.193Z,100913.15
2023-05-05T02:39:14.989Z,100914.42
2023-05-05T02:44:20.686Z,100918.15
2023-05-05T02:49:23.691Z,100918.42
2023-05-05T02:54:27.468Z,100919.74
2023-05-05T02:59:59.392Z,100921.55
2023-05-05T03:05:17.402Z,100922.28
2023-05-05T03:10:23.222Z,100919.96
2023-05-05T03:15:31.301Z,100923.19
2023-05-05T03:20:35.132Z,100926.77
2023-05-05T03:25:48.528Z,100935.73
2023-05-05T03:30:52.187Z,100941.96
2023-05-05T03:35:55.177Z,100944.15
2023-05-05T03:41:02.304Z,100946.32
2023-05-05T03:46:05.787Z,100947.36
2023-05-05T03:51:09.037Z,100952.99
2023-05-05T03:56:12.009Z,100958.14
2023-05-05T04:01:15.305Z,100956.63
2023-05-05T04:06:18.209Z,100964.95
2023-05-05T04:11:21.632Z,100968.88
2023-05-05T04:16:24.660Z,100974.09
2023-05-05T04:21:27.741Z,100981.43
2023-05-05T04:26:30.647Z,100982.91
2023-05-05T04:31:33.577Z,100984.77
2023-05-05T04:36:36.456Z,100989.34
2023-05-05T04:41:39.361Z,100990.15
2023-05-05T04:46:43.005Z,100993.11
2023-05-05T04:51:46.723Z,100996.46
2023-05-05T04:56:49.916Z,101000.05
2023-05-05T05:01:53.046Z,101005.61
2023-05-05T05:06:58.973Z,101015.74
2023-05-05T05:12:03.240Z,101021.27
2023-05-05T05:17:06.746Z,101031.61
2023-05-05T05:22:09.670Z,101032.30
2023-05-05T05:27:12.568Z,101036.56
2023-05-05T05:32:15.839Z,101035.19
2023-05-05T05:37:18.877Z,101037.73
2023-05-05T05:42:21.787Z,101044.81
2023-05-05T05:47:25.577Z,101047.31
2023-05-05T05:52:28.412Z,101050.52
2023-05-05T05:57:31.540Z,101051.66
2023-05-05T06:02:34.454Z,101060.91
2023-05-05T06:07:37.747Z,101056.79
2023-05-05T06:12:40.658Z,101058.19
2023-05-05T06:17:43.677Z,101063.33
2023-05-05T06:22:46.651Z,101070.92
2023-05-05T06:27:49.868Z,101077.27
2023-05-05T06:32:54.489Z,101075.36
2023-05-05T06:37:57.624Z,101076.83
2023-05-05T06:43:00.527Z,101077.94
2023-05-05T06:48:03.488Z,101081.25
2023-05-05T06:53:06.649Z,101083.35
2023-05-05T06:58:10.155Z,101086.73
2023-05-05T07:03:13.739Z,101087.74
2023-05-05T07:08:16.689Z,101087.64
2023-05-05T07:13:20.153Z,101083.69
2023-05-05T07:18:23.099Z,101087.20
2023-05-05T07:23:26.008Z,101086.28
2023-05-05T07:28:28.921Z,101085.17
2023-05-05T07:33:31.716Z,101091.27
2023-05-05T07:38:34.720Z,101093.00
2023-05-05T07:43:39.614Z,101098.80
2023-05-05T07:48:42.603Z,101098.04
2023-05-05T07:53:45.582Z,101103.05
2023-05-05T07:58:49.006Z,101100.77
2023-05-05T08:03:52.179Z,101097.14
2023-05-05T08:08:56.034Z,101103.63
2023-05-05T08:13:59.584Z,101108.99
2023-05-05T08:19:02.945Z,101113.30
2023-05-05T08:24:06.463Z,101114.37
2023-05-05T08:29:09.502Z,101116.41
2023-05-05T08:34:12.379Z,101112.44
2023-05-05T08:39:15.409Z,101107.59
2023-05-05T08:44:18.531Z,101114.75
2023-05-05T08:49:22.720Z,101116.85
2023-05-05T08:54:31.148Z,101120.30
2023-05-05T08:59:36.086Z,101117.05
2023-05-05T09:04:39.413Z,101123.08
2023-05-05T09:09:42.351Z,101126.54
2023-05-05T09:15:02.252Z,101125.70
2023-05-05T09:20:08.239Z,101130.92
2023-05-05T09:25:15.233Z,101138.98
2023-05-05T09:30:24.558Z,101129.71
2023-05-05T09:35:27.502Z,101133.17
2023-05-05T09:40:45.587Z,101132.43
2023-05-05T09:45:49.480Z,101136.20
2023-05-05T09:50:53.386Z,101135.90
2023-05-05T09:55:58.171Z,101127.33
2023-05-05T10:01:01.415Z,101122.95
2023-05-05T10:06:04.883Z,101122.89
2023-05-05T10:11:07.994Z,101126.39
2023-05-05T10:16:12.768Z,101128.64
2023-05-05T10:21:20.179Z,101126.06
2023-05-05T10:26:26.316Z,101121.39
2023-05-05T10:31:52.970Z,101116.33
2023-05-05T10:36:57.789Z,101114.18
2023-05-05T10:42:04.419Z,101118.81
2023-05-05T10:47:07.921Z,101114.91
2023-05-05T10:52:17.007Z,101115.17
2023-05-05T10:57:25.096Z,101117.80
2023-05-05T11:02:29.677Z,101112.58
2023-05-05T11:07:34.489Z,101113.90
2023-05-05T11:12:52.665Z,101105.80
2023-05-05T11:17:57.224Z,101103.38
2023-05-05T11:23:03.270Z,101098.31
2023-05-05T11:28:07.338Z,101092.97
2023-05-05T11:33:27.542Z,101088.89
2023-05-05T11:38:33.014Z,101086.91
2023-05-05T11:43:36.701Z,101081.22
2023-05-05T11:48:54.689Z,101077.95
2023-05-05T11:53:59.041Z,101074.20
2023-05-05T11:59:20.468Z,101079.66
2023-05-05T12:04:23.458Z,101077.84
2023-05-05T12:09:27.440Z,101075.45
2023-05-05T12:14:30.421Z,101080.17
2023-05-05T12:19:34.736Z,101078.51
2023-05-05T12:24:37.559Z,101069.61
2023-05-05T12:29:40.459Z,101072.49
2023-05-05T12:34:44.116Z,101073.63
2023-05-05T12:39:47.315Z,101064.14
2023-05-05T12:44:50.511Z,101056.54
2023-05-05T12:49:53.670Z,101057.21
2023-05-05T12:54:58.876Z,101065.41
2023-05-05T13:00:14.022Z,101064.61
2023-05-05T13:05:38.373Z,101066.45
2023-05-05T13:10:57.561Z,101060.21
2023-05-05T13:16:00.800Z,101051.40
2023-05-05T13:21:04.089Z,101046.45
2023-05-05T13:26:07.462Z,101037.25
2023-05-05T13:31:10.619Z,101035.05
2023-05-05T13:36:14.332Z,101030.97
2023-05-05T13:41:17.249Z,101026.88
2023-05-05T13:46:20.485Z,101024.27
2023-05-05T13:51:23.452Z,101023.09
2023-05-05T13:56:27.889Z,101019.64
2023-05-05T14:01:31.048Z,101019.07
2023-05-05T14:06:34.271Z,101019.98
2023-05-05T14:11:37.424Z,101016.74
2023-05-05T14:16:40.270Z,101013.77
2023-05-05T14:21:43.644Z,101011.13
2023-05-05T14:26:46.650Z,101007.30
2023-05-05T14:31:49.649Z,101003.91
2023-05-05T14:36:52.666Z,101002.42
2023-05-05T14:41:55.511Z,101009.41
2023-05-05T14:46:58.468Z,101014.73
2023-05-05T14:52:01.377Z,101008.92
2023-05-05T14:57:04.377Z,101012.54
2023-05-05T15:02:07.761Z,101013.20
2023-05-05T15:07:11.621Z,101010.09
2023-05-05T15:12:14.532Z,101007.62
2023-05-05T15:17:17.538Z,101008.31
2023-05-05T15:22:20.535Z,101014.10
2023-05-05T15:27:23.349Z,101011.16
2023-05-05T15:32:26.266Z,101003.64
2023-05-05T15:37:29.424Z,101005.15
2023-05-05T15:42:33.880Z,101008.63
2023-05-05T15:47:36.722Z,101008.52
2023-05-05T15:52:39.697Z,101002.92
2023-05-05T15:57:42.614Z,100998.45
2023-05-05T16:02:45.664Z,100996.73
2023-05-05T16:07:48.719Z,100992.30
2023-05-05T16:12:52.296Z,100996.62
2023-05-05T16:17:55.404Z,100995.25
2023-05-05T16:22:58.354Z,100986.96
2023-05-05T16:28:01.980Z,100979.98
2023-05-05T16:33:04.813Z,100981.16
2023-05-05T16:38:07.924Z,100982.06
2023-05-05T16:43:11.015Z,100979.51
2023-05-05T16:48:14.846Z,100983.91
2023-05-05T16:53:17.834Z,100980.52
2023-05-05T16:58:21.392Z,100988.70
2023-05-05T17:03:24.255Z,100992.34
2023-05-05T17:08:27.162Z,100993.60
2023-05-05T17:13:30.060Z,100996.31
2023-05-05T17:18:32.899Z,100997.35
2023-05-05T17:23:35.765Z,101001.30
2023-05-05T17:28:38.673Z,101004.73
2023-05-05T17:33:41.588Z,101010.38
2023-05-05T17:38:44.476Z,101012.30
2023-05-05T17:43:47.381Z,101009.94
2023-05-05T17:48:51.467Z,101017.08
2023-05-05T17:53:54.421Z,101017.42
2023-05-05T17:58:57.228Z,101024.82
2023-05-05T18:04:00.740Z,101028.78
2023-05-05T18:09:03.851Z,101031.86
2023-05-05T18:14:06.780Z,101035.68
2023-05-05T18:19:09.761Z,101038.23
2023-05-05T18:29:22.230Z,101046.91
2023-05-05T18:34:25.132Z,101048.86
2023-05-05T18:39:28.357Z,101053.09
2023-05-05T18:44:32.992Z,101057.85
2023-05-05T18:49:35.899Z,101067.04
2023-05-05T18:54:38.687Z,101069.45
2023-05-05T18:59:41.612Z,101075.83
2023-05-05T19:04:44.582Z,101080.44
2023-05-05T19:09:47.509Z,101082.10
2023-05-05T19:14:50.518Z,101076.85
2023-05-05T19:19:53.418Z,101078.84
2023-05-05T19:24:56.322Z,101080.05
2023-05-05T19:29:59.221Z,101074.75
2023-05-05T19:35:03.255Z,101069.58
2023-05-05T19:40:07.128Z,101070.38
2023-05-05T19:45:10.090Z,101074.83
2023-05-05T19:50:15.495Z,101082.21
2023-05-05T19:55:18.973Z,101086.30
2023-05-05T20:00:21.974Z,101085.61
2023-05-05T20:05:24.876Z,101086.80
2023-05-05T20:10:28.087Z,101084.20
2023-05-05T20:15:31.983Z,101084.57
2023-05-05T20:20:36.046Z,101086.28
2023-05-05T20:25:39.161Z,101091.96
2023-05-05T20:30:42.075Z,101091.77
2023-05-05T20:35:44.974Z,101089.61
2023-05-05T20:40:48.179Z,101088.86
2023-05-05T20:45:51.818Z,101094.64
2023-05-05T20:50:54.991Z,101095.08
2023-05-05T20:55:58.144Z,101095.17
2023-05-05T21:01:01.169Z,101091.97
2023-05-05T21:06:04.557Z,101093.59
2023-05-05T21:11:10.938Z,101097.71
2023-05-05T21:16:13.960Z,101100.41
2023-05-05T21:21:17.554Z,101100.30
2023-05-05T21:26:21.278Z,101100.55
2023-05-05T21:31:24.182Z,101098.71
2023-05-05T21:36:27.601Z,101095.95
2023-05-05T21:41:30.912Z,101095.79
2023-05-05T21:46:34.085Z,101099.92
2023-05-05T21:51:37.438Z,101096.79
2023-05-05T21:56:40.961Z,101100.55
2023-05-05T22:01:43.899Z,101103.46
2023-05-05T22:06:46.878Z,101099.45
2023-05-05T22:11:50.623Z,101096.81
2023-05-05T22:16:53.600Z,101099.00
2023-05-05T22:21:58.732Z,101096.36
2023-05-05T22:27:02.035Z,101091.00
2023-05-05T22:32:04.973Z,101093.70
2023-05-05T22:37:08.897Z,101092.48
2023-05-05T22:42:11.908Z,101091.39
2023-05-05T22:47:14.923Z,101096.31
2023-05-05T22:52:18.229Z,101096.59
2023-05-05T22:57:21.650Z,101091.33
2023-05-05T23:02:26.972Z,101092.08
2023-05-05T23:07:30.010Z,101093.11
2023-05-05T23:12:33.778Z,101092.66
2023-05-05T23:17:36.758Z,101085.16
2023-05-05T23:22:39.749Z,101085.91
2023-05-05T23:27:42.651Z,101083.27
2023-05-05T23:32:46.210Z,101080.98
2023-05-05T23:37:49.586Z,101080.39
2023-05-05T23:42:52.421Z,101072.38
2023-05-05T23:47:55.341Z,101080.06
2023-05-05T23:52:58.305Z,101078.58
2023-05-05T23:58:01.208Z,101076.58
